createdAt,value
2022-11-23T00:00:49.541Z,100196.84
2022-11-23T00:03:17.621Z,100188.91
2022-11-23T00:05:45.322Z,100196.69
2022-11-23T00:08:13.191Z,100205.41
2022-11-23T00:10:42.562Z,100207.03
2022-11-23T00:13:10.232Z,100174.56
2022-11-23T00:15:37.939Z,100164.06
2022-11-23T00:18:05.764Z,100134.28
2022-11-23T00:20:33.560Z,100124.69
2022-11-23T00:23:01.693Z,100128.16
2022-11-23T00:25:29.640Z,100119.44
2022-11-23T00:27:58.779Z,100142.16
2022-11-23T00:30:26.645Z,100144.75
2022-11-23T00:32:56.092Z,100155.28
2022-11-23T00:35:23.881Z,100147.28
2022-11-23T00:37:51.639Z,100120.06
2022-11-23T00:40:19.732Z,100109.66
2022-11-23T00:42:47.511Z,100089.53
2022-11-23T00:45:16.660Z,100102.69
2022-11-23T00:47:44.645Z,100086.03
2022-11-23T00:50:12.346Z,100093.94
2022-11-23T00:52:40.124Z,100099.19
2022-11-23T00:55:08.784Z,100093.94
2022-11-23T00:57:36.612Z,100099.19
2022-11-23T01:00:05.597Z,100088.72
2022-11-23T01:02:37.391Z,100112.38
2022-11-23T01:05:06.279Z,100110.59
2022-11-23T01:07:34.058Z,100120.16
2022-11-23T01:10:01.937Z,100097.47
2022-11-23T01:12:30.814Z,100127.09
2022-11-23T01:14:58.567Z,100132.25
2022-11-23T01:17:26.308Z,100107.66
2022-11-23T01:19:55.762Z,100111.97
2022-11-23T01:22:23.428Z,100085.81
2022-11-23T01:24:52.194Z,100074.47
2022-11-23T01:27:19.887Z,100080.47
2022-11-23T01:29:47.789Z,100090.94
2022-11-23T01:32:15.519Z,100092.66
2022-11-23T01:34:43.327Z,100094.34
2022-11-23T01:37:12.708Z,100059.31
2022-11-23T01:39:40.447Z,100066.25
2022-11-23T01:42:08.723Z,100053.09
2022-11-23T01:44:38.503Z,100041.66
2022-11-23T01:47:08.960Z,100044.28
2022-11-23T01:49:40.039Z,100029.41
2022-11-23T01:52:11.312Z,100031.13
2022-11-23T01:54:45.888Z,100025.84
2022-11-23T01:57:19.231Z,100031.06
2022-11-23T01:59:48.160Z,100036.25
2022-11-23T02:02:16.601Z,100036.16
2022-11-23T02:04:48.016Z,100017.78
2022-11-23T02:07:18.139Z,100019.47
2022-11-23T02:09:48.764Z,99999.31
2022-11-23T02:12:16.583Z,100005.38
2022-11-23T02:14:44.402Z,99992.28
2022-11-23T02:17:12.722Z,99985.25
2022-11-23T02:19:49.193Z,99992.22
2022-11-23T02:22:25.122Z,99995.63
2022-11-23T02:24:56.198Z,99982.53
2022-11-23T02:27:26.173Z,99963.22
2022-11-23T02:29:55.688Z,99962.31
2022-11-23T02:32:26.017Z,99957.91
2022-11-23T02:34:53.814Z,99977.97
2022-11-23T02:37:21.809Z,99963.06
2022-11-23T02:39:51.312Z,99964.81
2022-11-23T02:42:19.732Z,99976.09
2022-11-23T02:45:00.649Z,99941.16
2022-11-23T02:47:28.584Z,99961.22
2022-11-23T02:49:56.317Z,99962.06
2022-11-23T02:52:24.234Z,99938.50
2022-11-23T02:54:51.991Z,99944.63
2022-11-23T02:57:20.051Z,99987.47
2022-11-23T02:59:49.448Z,99969.16
2022-11-23T03:02:17.264Z,100004.91
2022-11-23T03:04:45.057Z,99972.50
2022-11-23T03:07:12.786Z,99958.47
2022-11-23T03:09:40.826Z,99962.78
2022-11-23T03:12:08.727Z,99956.56
2022-11-23T03:14:38.646Z,99944.31
2022-11-23T03:17:07.775Z,99942.56
2022-11-23T03:19:35.710Z,99939.06
2022-11-23T03:22:04.393Z,99927.72
2022-11-23T03:24:32.198Z,99948.66
2022-11-23T03:26:59.933Z,99932.06
2022-11-23T03:29:27.774Z,99930.34
2022-11-23T03:31:55.942Z,99957.41
2022-11-23T03:34:25.030Z,99940.72
2022-11-23T03:36:53.181Z,99936.31
2022-11-23T03:39:20.943Z,99931.91
2022-11-23T03:41:50.964Z,99938.91
2022-11-23T03:44:18.769Z,99923.91
2022-11-23T03:46:46.535Z,99911.78
2022-11-23T03:49:14.251Z,99907.38
2022-11-23T03:51:43.325Z,99901.41
2022-11-23T03:54:11.127Z,99917.09
2022-11-23T03:56:38.872Z,99902.25
2022-11-23T03:59:06.777Z,99917.16
2022-11-23T04:01:34.549Z,99926.75
2022-11-23T04:04:02.305Z,99923.25
2022-11-23T04:06:29.986Z,99921.50
2022-11-23T04:09:02.264Z,99917.09
2022-11-23T04:11:30.325Z,99902.34
2022-11-23T04:13:58.069Z,99906.72
2022-11-23T04:16:26.108Z,99902.38
2022-11-23T04:18:53.856Z,99909.41
2022-11-23T04:21:21.621Z,99917.22
2022-11-23T04:23:49.486Z,99926.03
2022-11-23T04:26:18.874Z,99920.78
2022-11-23T04:28:46.641Z,99910.25
2022-11-23T04:31:14.541Z,99926.88
2022-11-23T04:33:42.364Z,99928.59
2022-11-23T04:36:10.373Z,99925.13
2022-11-23T04:38:38.125Z,99932.16
2022-11-23T04:41:06.307Z,99936.47
2022-11-23T04:43:35.804Z,99925.97
2022-11-23T04:46:04.033Z,99912.03
2022-11-23T04:48:32.854Z,99921.72
2022-11-23T04:51:00.624Z,99922.56
2022-11-23T04:53:28.376Z,99913.88
2022-11-23T04:55:56.177Z,99927.84
2022-11-23T04:58:24.098Z,99933.13
2022-11-23T05:00:56.138Z,99929.66
2022-11-23T05:03:23.938Z,99950.59
2022-11-23T05:05:51.869Z,99939.31
2022-11-23T05:08:19.871Z,99955.00
2022-11-23T05:10:47.555Z,99934.03
2022-11-23T05:13:15.914Z,99935.75
2022-11-23T05:15:43.645Z,99922.69
2022-11-23T05:18:13.329Z,99918.28
2022-11-23T05:20:41.204Z,99916.59
2022-11-23T05:23:09.202Z,99918.41
2022-11-23T05:25:37.029Z,99916.66
2022-11-23T05:28:30.220Z,99923.75
2022-11-23T05:30:53.920Z,99915.03
2022-11-23T05:33:23.014Z,99921.22
2022-11-23T05:35:50.702Z,99933.50
2022-11-23T05:38:18.581Z,99944.88
2022-11-23T05:40:46.928Z,99944.03
2022-11-23T05:43:14.862Z,99947.53
2022-11-23T05:45:42.656Z,99944.97
2022-11-23T05:48:10.919Z,99940.59
2022-11-23T05:50:40.047Z,99959.91
2022-11-23T05:53:07.786Z,99965.09
2022-11-23T05:55:35.451Z,99950.28
2022-11-23T05:58:03.815Z,99948.66
2022-11-23T06:00:31.913Z,99980.06
2022-11-23T06:03:01.454Z,99989.69
2022-11-23T06:05:29.453Z,99988.78
2022-11-23T06:07:58.545Z,100013.16
2022-11-23T06:10:26.394Z,100036.63
2022-11-23T06:12:54.198Z,100010.31
2022-11-23T06:15:21.977Z,99995.41
2022-11-23T06:17:49.607Z,99972.59
2022-11-23T06:20:17.505Z,99966.41
2022-11-23T06:22:45.428Z,99954.91
2022-11-23T06:25:14.663Z,99954.84
2022-11-23T06:27:42.393Z,99930.34
2022-11-23T06:30:11.456Z,99932.06
2022-11-23T06:32:39.294Z,99929.34
2022-11-23T06:35:07.289Z,99919.78
2022-11-23T06:37:35.055Z,99927.59
2022-11-23T06:40:02.879Z,99922.31
2022-11-23T06:42:38.825Z,99926.53
2022-11-23T06:45:08.997Z,99923.97
2022-11-23T06:47:36.930Z,99907.34
2022-11-23T06:50:05.574Z,99922.19
2022-11-23T06:52:33.721Z,99939.63
2022-11-23T06:55:01.470Z,99928.19
2022-11-23T06:57:30.980Z,99928.94
2022-11-23T06:59:58.719Z,99953.28
2022-11-23T07:02:26.419Z,99942.69
2022-11-23T07:04:54.176Z,99913.78
2022-11-23T07:07:21.995Z,99932.94
2022-11-23T07:09:49.684Z,99911.84
2022-11-23T07:12:17.466Z,99900.44
2022-11-23T07:14:46.907Z,99910.88
2022-11-23T07:17:17.408Z,99916.97
2022-11-23T07:19:45.562Z,99920.25
2022-11-23T07:22:13.379Z,99906.25
2022-11-23T07:24:46.402Z,99890.56
2022-11-23T07:27:14.708Z,99893.13
2022-11-23T07:29:42.448Z,99896.59
2022-11-23T07:32:11.556Z,99887.03
2022-11-23T07:34:39.291Z,99880.06
2022-11-23T07:37:07.116Z,99886.31
2022-11-23T07:39:56.247Z,99856.75
2022-11-23T07:42:44.677Z,99862.09
2022-11-23T07:45:12.732Z,99871.81
2022-11-23T07:47:41.995Z,99911.97
2022-11-23T07:50:11.635Z,99918.03
2022-11-23T07:52:40.188Z,99942.34
2022-11-23T07:55:08.633Z,99899.53
2022-11-23T07:57:36.535Z,99894.31
2022-11-23T08:00:05.334Z,99895.28
2022-11-23T08:02:33.191Z,99903.97
2022-11-23T08:05:02.514Z,99908.34
2022-11-23T08:07:30.245Z,99913.50
2022-11-23T08:09:57.961Z,99930.09
2022-11-23T08:12:25.688Z,99928.25
2022-11-23T08:14:53.405Z,99944.81
2022-11-23T08:17:21.180Z,99930.81
2022-11-23T08:19:49.037Z,99934.28
2022-11-23T08:22:18.349Z,99963.06
2022-11-23T08:24:46.153Z,99919.28
2022-11-23T08:27:13.875Z,99944.63
2022-11-23T08:29:41.572Z,99900.91
2022-11-23T08:32:09.401Z,99915.81
2022-11-23T08:34:37.091Z,99931.50
2022-11-23T08:37:04.890Z,99923.59
2022-11-23T08:39:34.504Z,99955.91
2022-11-23T08:42:02.417Z,99965.34
2022-11-23T08:44:30.585Z,99970.50
2022-11-23T08:46:58.574Z,99973.97
2022-11-23T08:49:26.570Z,99977.38
2022-11-23T08:51:54.549Z,99937.06
2022-11-23T08:54:24.143Z,99978.94
2022-11-23T08:56:53.360Z,99982.25
2022-11-23T08:59:21.159Z,100001.31
2022-11-23T09:01:49.158Z,99988.94
2022-11-23T09:04:20.636Z,99966.94
2022-11-23T09:06:48.639Z,99986.03
2022-11-23T09:09:16.339Z,99999.72
2022-11-23T09:11:44.092Z,99976.75
2022-11-23T09:14:13.293Z,99988.94
2022-11-23T09:16:41.140Z,100024.44
2022-11-23T09:19:08.783Z,100003.03
2022-11-23T09:21:39.632Z,99992.19
2022-11-23T09:24:08.638Z,99989.25
2022-11-23T09:26:39.850Z,99956.63
2022-11-23T09:29:08.435Z,99939.13
2022-11-23T09:31:38.064Z,99970.44
2022-11-23T09:34:06.185Z,99926.56
2022-11-23T09:36:33.971Z,99944.81
2022-11-23T09:39:01.743Z,99942.66
2022-11-23T09:41:54.654Z,99980.84
2022-11-23T09:44:34.439Z,99968.88
2022-11-23T09:47:33.089Z,99970.06
2022-11-23T09:50:09.640Z,99974.56
2022-11-23T09:52:39.733Z,99978.38
2022-11-23T09:55:15.945Z,99973.41
2022-11-23T09:57:46.428Z,99959.72
2022-11-23T10:00:20.447Z,99990.69
2022-11-23T10:02:50.053Z,99926.66
2022-11-23T10:05:20.988Z,99869.56
2022-11-23T10:08:03.353Z,99862.31
2022-11-23T10:10:42.454Z,99825.47
2022-11-23T10:13:32.093Z,99840.97
2022-11-23T10:16:17.380Z,99829.19
2022-11-23T10:18:56.331Z,99813.19
2022-11-23T10:21:30.518Z,99804.28
2022-11-23T10:24:12.836Z,99814.09
2022-11-23T10:26:45.102Z,99844.00
2022-11-23T10:29:15.684Z,99775.38
2022-11-23T10:31:46.731Z,99818.81
2022-11-23T10:34:20.360Z,99809.72
2022-11-23T10:36:48.082Z,99775.44
2022-11-23T10:39:23.979Z,99800.72
2022-11-23T10:41:53.154Z,99755.97
2022-11-23T10:44:32.336Z,99782.97
2022-11-23T10:47:00.491Z,99792.31
2022-11-23T10:49:31.297Z,99801.78
2022-11-23T10:52:03.605Z,99787.47
2022-11-23T10:54:34.589Z,99775.16
2022-11-23T10:57:04.850Z,99754.03
2022-11-23T10:59:36.590Z,99756.47
2022-11-23T11:02:16.336Z,99739.78
2022-11-23T11:04:45.865Z,99738.97
2022-11-23T11:07:31.748Z,99742.44
2022-11-23T11:10:01.163Z,99743.28
2022-11-23T11:12:30.493Z,99739.78
2022-11-23T11:15:10.714Z,99758.97
2022-11-23T11:17:40.271Z,99756.25
2022-11-23T11:20:31.364Z,99751.69
2022-11-23T11:23:01.183Z,99788.16
2022-11-23T11:25:32.302Z,99750.94
2022-11-23T11:28:00.610Z,99700.59
2022-11-23T11:30:34.646Z,99711.13
2022-11-23T11:33:12.441Z,99713.72
2022-11-23T11:35:44.613Z,99687.19
2022-11-23T11:38:19.517Z,99664.03
2022-11-23T11:40:49.182Z,99649.94
2022-11-23T11:43:25.429Z,99683.09
2022-11-23T11:46:27.936Z,99703.06
2022-11-23T11:48:55.792Z,99680.06
2022-11-23T11:51:33.426Z,99681.78
2022-11-23T11:54:06.666Z,99669.16
2022-11-23T11:56:40.129Z,99649.75
2022-11-23T11:59:22.388Z,99635.69
2022-11-23T12:01:57.725Z,99650.28
2022-11-23T12:04:31.783Z,99673.94
2022-11-23T12:07:09.683Z,99709.91
2022-11-23T12:09:42.460Z,99659.03
2022-11-23T12:12:17.134Z,99701.47
2022-11-23T12:14:46.674Z,99671.28
2022-11-23T12:17:34.478Z,99659.94
2022-11-23T12:20:15.074Z,99621.66
2022-11-23T12:22:56.956Z,99622.38
2022-11-23T12:25:33.423Z,99617.84
2022-11-23T12:28:22.129Z,99634.38
2022-11-23T12:30:59.402Z,99634.38
2022-11-23T12:33:49.083Z,99574.47
2022-11-23T12:36:36.343Z,99611.28
2022-11-23T12:39:16.742Z,99595.56
2022-11-23T12:41:48.884Z,99602.56
2022-11-23T12:44:42.747Z,99602.00
2022-11-23T12:47:20.738Z,99648.59
2022-11-23T12:49:53.163Z,99643.41
2022-11-23T12:52:35.648Z,99646.91
2022-11-23T12:55:20.098Z,99620.63
2022-11-23T12:57:54.280Z,99648.59
2022-11-23T13:00:23.628Z,99647.63
2022-11-23T13:03:23.362Z,99639.44
2022-11-23T13:06:32.397Z,99614.88
2022-11-23T13:09:23.611Z,99632.34
2022-11-23T13:12:15.658Z,99590.06
2022-11-23T13:14:56.258Z,99628.59
2022-11-23T13:17:33.972Z,99590.06
2022-11-23T13:20:43.496Z,99605.81
2022-11-23T13:23:11.566Z,99603.03
2022-11-23T13:25:40.536Z,99606.78
2022-11-23T13:28:29.594Z,99610.28
2022-11-23T13:31:23.628Z,99590.06
2022-11-23T13:33:54.923Z,99606.66
2022-11-23T13:37:11.665Z,99618.16
2022-11-23T13:40:12.427Z,99577.19
2022-11-23T13:42:40.401Z,99600.06
2022-11-23T13:45:30.419Z,99609.72
2022-11-23T13:48:08.110Z,99624.72
2022-11-23T13:50:37.073Z,99675.50
2022-11-23T13:53:06.087Z,99678.09
2022-11-23T13:55:36.267Z,99683.41
2022-11-23T13:58:38.421Z,99660.75
2022-11-23T14:01:08.505Z,99645.16
2022-11-23T14:04:20.332Z,99609.63
2022-11-23T14:06:52.454Z,99617.75
2022-11-23T14:09:25.906Z,99639.09
2022-11-23T14:12:19.782Z,99634.25
2022-11-23T14:14:56.674Z,99625.66
2022-11-23T14:18:00.904Z,99665.44
2022-11-23T14:21:13.402Z,99647.16
2022-11-23T14:24:30.572Z,99663.13
2022-11-23T14:27:45.110Z,99647.53
2022-11-23T14:30:06.641Z,99644.22
2022-11-23T14:32:46.372Z,99678.56
2022-11-23T14:35:24.071Z,99679.47
2022-11-23T14:38:06.403Z,99682.22
2022-11-23T14:40:48.997Z,99696.25
2022-11-23T14:43:19.604Z,99675.19
2022-11-23T14:45:48.738Z,99678.63
2022-11-23T14:48:24.041Z,99694.50
2022-11-23T14:51:05.297Z,99704.97
2022-11-23T14:53:36.790Z,99680.34
2022-11-23T14:56:04.861Z,99675.13
2022-11-23T14:58:34.588Z,99671.75
2022-11-23T15:01:03.431Z,99668.31
2022-11-23T15:03:49.979Z,99686.06
2022-11-23T15:06:26.710Z,99689.66
2022-11-23T15:09:01.025Z,99660.69
2022-11-23T15:11:31.437Z,99676.81
2022-11-23T15:14:03.266Z,99662.03
2022-11-23T15:16:39.442Z,99688.75
2022-11-23T15:19:18.873Z,99696.84
2022-11-23T15:21:49.428Z,99696.09
2022-11-23T15:24:24.979Z,99685.03
2022-11-23T15:26:53.483Z,99701.88
2022-11-23T15:29:33.521Z,99714.25
2022-11-23T15:34:52.225Z,99717.84
2022-11-23T15:37:22.878Z,99728.44
2022-11-23T15:39:51.901Z,99718.84
2022-11-23T15:42:22.633Z,99732.09
2022-11-23T15:44:54.525Z,99704.16
2022-11-23T15:47:27.523Z,99717.47
2022-11-23T15:50:00.823Z,99730.75
2022-11-23T15:52:35.049Z,99742.28
2022-11-23T15:55:09.206Z,99740.56
2022-11-23T15:57:39.780Z,99749.34
2022-11-23T16:00:09.432Z,99730.97
2022-11-23T16:02:37.866Z,99747.78
2022-11-23T16:05:13.550Z,99749.66
2022-11-23T16:07:57.434Z,99727.38
2022-11-23T16:10:27.125Z,99772.13
2022-11-23T16:12:56.690Z,99787.00
2022-11-23T16:15:41.365Z,99793.69
2022-11-23T16:18:22.031Z,99781.41
2022-11-23T16:20:52.260Z,99742.00
2022-11-23T16:23:24.593Z,99753.59
2022-11-23T16:25:57.751Z,99749.44
2022-11-23T16:28:29.636Z,99752.16
2022-11-23T16:30:58.079Z,99736.41
2022-11-23T16:33:27.090Z,99743.59
2022-11-23T16:35:54.868Z,99742.94
2022-11-23T16:38:24.444Z,99747.34
2022-11-23T16:40:52.260Z,99727.47
2022-11-23T16:43:20.215Z,99729.50
2022-11-23T16:45:50.621Z,99724.50
2022-11-23T16:48:40.113Z,99718.81
2022-11-23T16:51:10.879Z,99717.41
2022-11-23T16:54:11.916Z,99740.53
2022-11-23T16:56:30.772Z,99733.88
2022-11-23T16:58:58.610Z,99739.47
2022-11-23T17:01:29.512Z,99745.06
2022-11-23T17:03:57.560Z,99727.97
2022-11-23T17:06:25.489Z,99747.50
2022-11-23T17:09:03.113Z,99753.88
2022-11-23T17:11:36.043Z,99751.53
2022-11-23T17:14:05.486Z,99765.75
2022-11-23T17:16:34.256Z,99778.28
2022-11-23T17:19:02.105Z,99763.63
2022-11-23T17:21:29.845Z,99772.75
2022-11-23T17:23:59.334Z,99770.31
2022-11-23T17:26:34.129Z,99787.13
2022-11-23T17:29:03.699Z,99789.94
2022-11-23T17:31:32.007Z,99798.88
2022-11-23T17:33:59.848Z,99799.09
2022-11-23T17:36:27.698Z,99805.41
2022-11-23T17:38:55.760Z,99818.69
2022-11-23T17:41:24.865Z,99817.06
2022-11-23T17:43:52.641Z,99836.34
2022-11-23T17:46:23.682Z,99842.66
2022-11-23T17:48:55.036Z,99841.88
2022-11-23T17:51:22.836Z,99841.94
2022-11-23T17:53:50.966Z,99851.63
2022-11-23T17:56:19.948Z,99857.13
2022-11-23T17:58:49.801Z,99855.44
2022-11-23T18:01:19.219Z,99854.63
2022-11-23T18:03:47.545Z,99865.22
2022-11-23T18:06:16.912Z,99872.38
2022-11-23T18:08:45.763Z,99880.34
2022-11-23T18:11:13.644Z,99891.75
2022-11-23T18:13:42.218Z,99876.13
2022-11-23T18:16:12.600Z,99889.38
2022-11-23T18:18:40.614Z,99906.97
2022-11-23T18:21:09.787Z,99916.69
2022-11-23T18:23:37.947Z,99919.47
2022-11-23T18:26:13.861Z,99927.44
2022-11-23T18:28:41.748Z,99924.13
2022-11-23T18:31:11.260Z,99939.09
2022-11-23T18:33:39.181Z,99937.44
2022-11-23T18:36:07.627Z,99942.00
2022-11-23T18:38:35.888Z,99955.25
2022-11-23T18:41:03.703Z,99969.34
2022-11-23T18:43:31.852Z,99968.63
2022-11-23T18:45:59.848Z,99982.69
2022-11-23T18:48:28.965Z,99983.78
2022-11-23T18:50:56.859Z,99984.78
2022-11-23T18:53:24.594Z,100027.69
2022-11-23T18:55:56.237Z,100016.50
2022-11-23T18:58:33.275Z,100033.16
2022-11-23T19:01:10.792Z,100055.09
2022-11-23T19:03:42.809Z,100035.13
2022-11-23T19:06:13.656Z,100064.94
2022-11-23T19:08:42.769Z,100065.84
2022-11-23T19:11:17.270Z,100063.25
2022-11-23T19:13:45.941Z,100052.03
2022-11-23T19:16:17.138Z,100055.59
2022-11-23T19:18:46.309Z,100061.81
2022-11-23T19:21:15.772Z,100057.53
2022-11-23T19:23:44.310Z,100054.09
2022-11-23T19:26:12.120Z,100062.06
2022-11-23T19:28:44.554Z,100075.28
2022-11-23T19:31:13.741Z,100078.03
2022-11-23T19:33:42.122Z,100080.75
2022-11-23T19:36:13.798Z,100096.56
2022-11-23T19:38:41.774Z,100092.28
2022-11-23T19:41:09.979Z,100107.22
2022-11-23T19:43:38.291Z,100124.84
2022-11-23T19:46:08.207Z,100124.00
2022-11-23T19:48:36.053Z,100136.28
2022-11-23T19:51:06.580Z,100152.09
2022-11-23T19:53:47.027Z,100144.28
2022-11-23T19:56:15.853Z,100144.41
2022-11-23T19:58:44.201Z,100147.94
2022-11-23T20:01:14.826Z,100167.28
2022-11-23T20:03:45.434Z,100149.91
2022-11-23T20:06:16.594Z,100167.50
2022-11-23T20:08:46.707Z,100185.06
2022-11-23T20:11:16.721Z,100192.06
2022-11-23T20:13:45.481Z,100202.59
2022-11-23T20:16:15.726Z,100214.88
2022-11-23T20:18:45.024Z,100214.00
2022-11-23T20:21:13.779Z,100220.13
2022-11-23T20:23:42.815Z,100239.41
2022-11-23T20:26:14.707Z,100243.81
2022-11-23T20:28:42.832Z,100259.56
2022-11-23T20:31:20.190Z,100253.53
2022-11-23T20:33:50.366Z,100258.78
2022-11-23T20:36:19.749Z,100275.44
2022-11-23T20:38:48.337Z,100281.63
2022-11-23T20:41:19.093Z,100286.91
2022-11-23T20:43:48.721Z,100300.09
2022-11-23T20:46:38.135Z,100311.47
2022-11-23T20:49:05.459Z,100322.00
2022-11-23T20:51:33.220Z,100330.81
2022-11-23T20:54:00.957Z,100323.88
2022-11-23T20:56:30.310Z,100315.19
2022-11-23T20:59:00.277Z,100333.56
2022-11-23T21:01:28.955Z,100337.97
2022-11-23T21:03:58.359Z,100344.16
2022-11-23T21:06:27.031Z,100346.84
2022-11-23T21:08:55.247Z,100371.41
2022-11-23T21:11:42.754Z,100379.31
2022-11-23T21:14:17.874Z,100391.63
2022-11-23T21:16:52.771Z,100409.16
2022-11-23T21:19:21.960Z,100415.31
2022-11-23T21:21:49.912Z,100427.63
2022-11-23T21:24:17.827Z,100427.63
2022-11-23T21:26:45.680Z,100442.53
2022-11-23T21:29:16.215Z,100445.19
2022-11-23T21:31:46.522Z,100451.38
2022-11-23T21:34:18.894Z,100463.66
2022-11-23T21:36:47.114Z,100466.25
2022-11-23T21:39:15.991Z,100474.19
2022-11-23T21:41:44.363Z,100480.31
2022-11-23T21:44:14.094Z,100481.22
2022-11-23T21:46:42.475Z,100497.03
2022-11-23T21:49:11.021Z,100497.88
2022-11-23T21:51:39.392Z,100497.88
2022-11-23T21:54:09.830Z,100486.53
2022-11-23T21:56:37.712Z,100500.56
2022-11-23T21:59:05.708Z,100496.19
2022-11-23T22:01:36.301Z,100500.59
2022-11-23T22:04:08.838Z,100501.47
2022-11-23T22:06:37.421Z,100497.09
2022-11-23T22:09:06.409Z,100488.44
2022-11-23T22:11:35.975Z,100513.81
2022-11-23T22:14:07.247Z,100515.59
2022-11-23T22:16:38.110Z,100515.59
2022-11-23T22:19:06.840Z,100517.38
2022-11-23T22:21:36.177Z,100513.03
2022-11-23T22:24:05.401Z,100506.94
2022-11-23T22:26:33.822Z,100508.72
2022-11-23T22:29:02.860Z,100529.75
2022-11-23T22:31:33.146Z,100526.25
2022-11-23T22:34:03.317Z,100529.75
2022-11-23T22:36:31.827Z,100535.03
2022-11-23T22:39:02.261Z,100526.31
2022-11-23T22:41:37.467Z,100536.84
2022-11-23T22:44:07.467Z,100538.63
2022-11-23T22:46:35.836Z,100534.25
2022-11-23T22:49:05.646Z,100533.44
2022-11-23T22:51:33.879Z,100526.47
2022-11-23T22:54:01.991Z,100529.97
2022-11-23T22:56:31.528Z,100537.84
2022-11-23T22:59:00.163Z,100537.91
2022-11-23T23:01:30.322Z,100553.69
2022-11-23T23:04:00.458Z,100552.81
2022-11-23T23:06:33.532Z,100563.34
2022-11-23T23:09:02.938Z,100570.31
2022-11-23T23:11:32.645Z,100571.19
2022-11-23T23:14:00.555Z,100566.78
2022-11-23T23:16:28.857Z,100586.06
2022-11-23T23:18:57.798Z,100605.31
2022-11-23T23:21:27.884Z,100601.81
2022-11-23T23:23:59.837Z,100601.81
2022-11-23T23:26:29.096Z,100621.06
2022-11-23T23:28:58.111Z,100631.56
2022-11-23T23:31:27.011Z,100632.34
2022-11-23T23:33:55.011Z,100635.88
2022-11-23T23:36:24.385Z,100662.13
2022-11-23T23:38:52.349Z,100646.34
2022-11-23T23:41:21.544Z,100665.56
2022-11-23T23:43:49.874Z,100656.81
2022-11-23T23:46:18.633Z,100664.66
2022-11-23T23:48:46.863Z,100676.94
2022-11-23T23:51:17.308Z,100683.06
2022-11-23T23:53:45.887Z,100703.25
2022-11-23T23:56:15.546Z,100688.34
2022-11-23T23:58:45.475Z,100709.38
